Time;durP1;ratioP1;P1;durP2;ratioP2;P2;SDS_P1;SDS_P2;PMS_P1;PMS_P2;Temp;Humidity;BMP_temperature;BMP_pressure;BME280_temperature;BME280_humidity;BME280_pressure;Samples;Min_cycle;Max_cycle;Signal;HPM_P1;HPM_P2
2023/04/28 00:00:56;;;;;;;25.65;16.85;;;;;;;;;;5025442;28;20062;-72
2023/04/28 00:03:22;;;;;;;27.55;16.33;;;;;;;;;;5023274;28;20021;-72
2023/04/28 00:05:48;;;;;;;31.05;17.27;;;;;;;;;;5019537;28;20088;-72
2023/04/28 00:08:15;;;;;;;32.05;19.02;;;;;;;;;;5018602;28;20022;-72
2023/04/28 00:10:41;;;;;;;27.65;17.40;;;;;;;;;;5026147;28;20024;-72
2023/04/28 00:13:07;;;;;;;32.60;19.77;;;;;;;;;;5029806;28;20038;-73
2023/04/28 00:15:33;;;;;;;31.35;18.52;;;;;;;;;;5016134;28;20062;-72
2023/04/28 00:18:00;;;;;;;29.00;18.48;;;;;;;;;;5027790;28;20072;-72
2023/04/28 00:20:26;;;;;;;28.98;18.00;;;;;;;;;;5019387;28;20403;-72
2023/04/28 00:22:52;;;;;;;34.15;17.20;;;;;;;;;;5016877;28;20564;-71
2023/04/28 00:25:18;;;;;;;32.00;19.10;;;;;;;;;;5021907;28;20022;-72
2023/04/28 00:27:44;;;;;;;29.42;17.33;;;;;;;;;;5012216;28;20101;-72
2023/04/28 00:30:10;;;;;;;33.75;19.33;;;;;;;;;;5012343;28;20030;-73
2023/04/28 00:32:37;;;;;;;33.08;19.75;;;;;;;;;;5017252;28;20033;-72
2023/04/28 00:35:03;;;;;;;33.03;19.17;;;;;;;;;;5028186;28;20065;-72
2023/04/28 00:37:29;;;;;;;28.27;18.00;;;;;;;;;;5013991;28;20026;-73
2023/04/28 00:39:55;;;;;;;28.40;18.15;;;;;;;;;;5016436;28;20041;-73
2023/04/28 00:42:22;;;;;;;35.10;18.27;;;;;;;;;;5014770;28;20108;-72
2023/04/28 00:44:48;;;;;;;35.75;18.35;;;;;;;;;;5021657;28;20033;-73
2023/04/28 00:47:17;;;;;;;33.22;19.05;;;;;;;;;;5030172;28;20101;-72
2023/04/28 00:49:43;;;;;;;33.95;18.08;;;;;;;;;;5028403;28;20060;-73
2023/04/28 00:52:09;;;;;;;32.10;17.48;;;;;;;;;;5019243;28;20026;-72
2023/04/28 00:54:36;;;;;;;32.17;18.15;;;;;;;;;;5024966;28;20083;-72
2023/04/28 00:57:05;;;;;;;36.10;18.73;;;;;;;;;;5023841;28;20403;-72
2023/04/28 00:59:31;;;;;;;31.77;18.45;;;;;;;;;;5029503;28;20022;-73
2023/04/28 01:01:59;;;;;;;29.25;18.15;;;;;;;;;;5018157;28;20036;-72
2023/04/28 01:04:26;;;;;;;33.78;18.52;;;;;;;;;;5017448;28;20391;-71
2023/04/28 01:06:53;;;;;;;29.70;16.77;;;;;;;;;;5012326;28;20081;-73
2023/04/28 01:09:19;;;;;;;32.38;19.00;;;;;;;;;;5018157;28;20379;-73
2023/04/28 01:11:45;;;;;;;32.10;18.83;;;;;;;;;;5011255;28;20026;-72
2023/04/28 01:14:11;;;;;;;32.90;19.48;;;;;;;;;;5014419;28;20026;-72
2023/04/28 01:16:38;;;;;;;31.92;18.60;;;;;;;;;;5013349;28;20050;-73
2023/04/28 01:19:06;;;;;;;35.85;18.13;;;;;;;;;;5022731;28;20060;-73
2023/04/28 01:21:33;;;;;;;30.10;17.10;;;;;;;;;;5018711;28;20064;-72
2023/04/28 01:24:00;;;;;;;33.55;20.33;;;;;;;;;;5020930;28;20025;-73
2023/04/28 01:26:26;;;;;;;34.38;18.10;;;;;;;;;;5023507;28;20025;-72
2023/04/28 01:28:52;;;;;;;32.00;18.80;;;;;;;;;;5012524;28;20393;-72
2023/04/28 01:31:19;;;;;;;36.35;18.13;;;;;;;;;;5016393;28;20033;-73
2023/04/28 01:33:45;;;;;;;34.83;18.40;;;;;;;;;;5021685;28;20087;-72
2023/04/28 01:36:11;;;;;;;32.78;18.95;;;;;;;;;;5028047;28;20029;-72
2023/04/28 01:38:37;;;;;;;38.75;20.35;;;;;;;;;;5022299;28;20025;-72
2023/04/28 01:41:03;;;;;;;34.20;18.13;;;;;;;;;;5022557;28;20550;-72
2023/04/28 01:43:29;;;;;;;30.63;18.17;;;;;;;;;;5020237;28;20034;-72
2023/04/28 01:45:56;;;;;;;32.20;17.25;;;;;;;;;;5024809;28;20021;-72
2023/04/28 01:48:22;;;;;;;34.15;17.92;;;;;;;;;;5041657;28;20025;-74
2023/04/28 01:50:48;;;;;;;34.60;18.88;;;;;;;;;;5028334;28;20026;-72
2023/04/28 01:53:14;;;;;;;33.33;18.27;;;;;;;;;;5018177;28;20498;-73
2023/04/28 01:55:40;;;;;;;35.28;19.23;;;;;;;;;;5022471;28;20390;-73
2023/04/28 01:58:06;;;;;;;35.75;18.70;;;;;;;;;;5022172;28;20077;-73
2023/04/28 02:00:33;;;;;;;40.35;20.55;;;;;;;;;;5025744;28;20030;-72
2023/04/28 02:02:59;;;;;;;37.15;19.92;;;;;;;;;;5016173;28;20030;-73
2023/04/28 02:05:25;;;;;;;36.22;19.65;;;;;;;;;;5023740;28;20113;-72
2023/04/28 02:07:51;;;;;;;39.92;18.20;;;;;;;;;;5023968;28;20026;-73
2023/04/28 02:10:17;;;;;;;31.95;19.27;;;;;;;;;;5022990;28;20022;-72
2023/04/28 02:12:44;;;;;;;30.48;17.60;;;;;;;;;;5015480;28;20029;-72
2023/04/28 02:15:10;;;;;;;35.25;18.60;;;;;;;;;;5001973;28;20781;-72
2023/04/28 02:17:36;;;;;;;33.30;17.70;;;;;;;;;;5010483;28;20092;-72
2023/04/28 02:20:03;;;;;;;33.50;18.75;;;;;;;;;;5015638;28;20041;-73
2023/04/28 02:22:30;;;;;;;42.65;19.58;;;;;;;;;;5034755;28;20037;-73
2023/04/28 02:24:56;;;;;;;35.45;19.42;;;;;;;;;;5025514;28;20133;-72
2023/04/28 02:27:22;;;;;;;35.70;18.40;;;;;;;;;;5018532;28;20333;-73
2023/04/28 02:29:49;;;;;;;35.03;18.00;;;;;;;;;;5021886;28;20128;-73
2023/04/28 02:32:15;;;;;;;34.47;18.75;;;;;;;;;;5006806;28;20025;-72
2023/04/28 02:34:41;;;;;;;37.47;18.52;;;;;;;;;;5021170;28;20022;-72
2023/04/28 02:37:07;;;;;;;34.75;19.67;;;;;;;;;;5011540;28;20104;-74
2023/04/28 02:39:33;;;;;;;34.67;18.75;;;;;;;;;;5020561;28;20017;-73
2023/04/28 02:41:59;;;;;;;39.83;19.77;;;;;;;;;;5021893;28;20067;-72
2023/04/28 02:44:25;;;;;;;39.15;20.25;;;;;;;;;;5013081;28;20792;-72
2023/04/28 02:46:51;;;;;;;40.80;20.20;;;;;;;;;;5025728;28;20026;-72
2023/04/28 02:49:18;;;;;;;40.92;20.00;;;;;;;;;;5017271;28;20026;-72
2023/04/28 02:51:44;;;;;;;39.55;20.00;;;;;;;;;;5021954;28;20546;-72
2023/04/28 02:54:10;;;;;;;33.75;18.85;;;;;;;;;;5028228;28;20048;-72
2023/04/28 02:56:36;;;;;;;37.17;20.95;;;;;;;;;;5016522;28;20137;-72
2023/04/28 02:59:02;;;;;;;41.72;19.63;;;;;;;;;;5021023;28;20049;-72
2023/04/28 03:01:29;;;;;;;35.10;18.88;;;;;;;;;;5010026;28;20029;-72
2023/04/28 03:03:55;;;;;;;39.35;20.77;;;;;;;;;;5022573;28;20454;-71
2023/04/28 03:06:21;;;;;;;32.42;18.20;;;;;;;;;;5023880;28;20113;-72
2023/04/28 03:08:47;;;;;;;38.63;20.45;;;;;;;;;;5015478;28;20099;-72
2023/04/28 03:11:13;;;;;;;38.75;19.77;;;;;;;;;;5014638;28;20033;-72
2023/04/28 03:13:39;;;;;;;36.67;19.80;;;;;;;;;;5026367;28;20590;-73
2023/04/28 03:16:06;;;;;;;34.22;19.27;;;;;;;;;;5017113;28;20030;-72
2023/04/28 03:18:33;;;;;;;37.33;20.00;;;;;;;;;;5019435;28;20022;-72
2023/04/28 03:20:59;;;;;;;37.85;19.73;;;;;;;;;;5012134;28;20045;-72
2023/04/28 03:23:25;;;;;;;40.65;20.70;;;;;;;;;;5017284;28;20487;-72
2023/04/28 03:25:51;;;;;;;39.47;22.55;;;;;;;;;;5019419;28;20109;-72
2023/04/28 03:28:17;;;;;;;44.67;20.75;;;;;;;;;;5019615;28;20021;-72
2023/04/28 03:30:43;;;;;;;40.60;20.63;;;;;;;;;;5019065;28;20101;-73
2023/04/28 03:33:09;;;;;;;41.35;20.92;;;;;;;;;;5021877;28;20058;-72
2023/04/28 03:35:36;;;;;;;34.47;20.73;;;;;;;;;;5021351;28;20577;-72
2023/04/28 03:38:02;;;;;;;39.35;20.58;;;;;;;;;;5020940;28;20396;-72
2023/04/28 03:40:28;;;;;;;42.85;20.17;;;;;;;;;;5028354;28;20100;-73
2023/04/28 03:42:54;;;;;;;41.55;21.08;;;;;;;;;;5019193;28;20108;-72
2023/04/28 03:45:20;;;;;;;37.60;19.23;;;;;;;;;;5023036;28;20492;-72
2023/04/28 03:47:46;;;;;;;41.15;20.45;;;;;;;;;;5018278;28;20033;-73
2023/04/28 03:50:12;;;;;;;43.20;22.50;;;;;;;;;;5011236;28;20101;-73
2023/04/28 03:52:38;;;;;;;40.72;21.95;;;;;;;;;;5026629;28;20092;-72
2023/04/28 03:55:06;;;;;;;43.55;20.95;;;;;;;;;;5014895;28;20034;-73
2023/04/28 03:57:32;;;;;;;45.13;20.90;;;;;;;;;;5009409;28;20045;-73
2023/04/28 03:59:59;;;;;;;44.35;21.05;;;;;;;;;;5008261;28;20061;-73
2023/04/28 04:02:25;;;;;;;50.45;22.45;;;;;;;;;;5020515;28;20449;-72
2023/04/28 04:04:51;;;;;;;42.40;20.10;;;;;;;;;;5019637;28;20090;-73
2023/04/28 04:07:17;;;;;;;47.95;22.15;;;;;;;;;;5021626;28;20053;-73
2023/04/28 04:09:43;;;;;;;46.85;23.42;;;;;;;;;;5017344;28;20029;-72
2023/04/28 04:12:09;;;;;;;47.70;22.63;;;;;;;;;;5024368;28;20266;-74
2023/04/28 04:14:35;;;;;;;44.97;22.52;;;;;;;;;;5028710;28;20033;-73
2023/04/28 04:17:01;;;;;;;44.22;22.70;;;;;;;;;;5031847;28;20040;-73
2023/04/28 04:19:27;;;;;;;46.40;24.17;;;;;;;;;;5026171;28;20013;-72
2023/04/28 04:21:54;;;;;;;46.40;23.55;;;;;;;;;;5016777;28;20029;-72
2023/04/28 04:24:20;;;;;;;43.55;23.25;;;;;;;;;;5024569;28;20053;-73
2023/04/28 04:26:46;;;;;;;48.92;22.73;;;;;;;;;;5023683;28;20086;-72
2023/04/28 04:29:12;;;;;;;47.72;24.30;;;;;;;;;;5009573;28;20037;-72
2023/04/28 04:31:38;;;;;;;48.70;22.10;;;;;;;;;;5016826;28;20379;-71
2023/04/28 04:34:04;;;;;;;47.05;23.38;;;;;;;;;;5028250;28;20022;-72
2023/04/28 04:36:31;;;;;;;53.78;25.45;;;;;;;;;;5030914;28;20124;-72
2023/04/28 04:38:57;;;;;;;52.88;24.20;;;;;;;;;;5027261;28;20033;-72
2023/04/28 04:41:25;;;;;;;51.25;24.10;;;;;;;;;;5016924;28;20071;-72
2023/04/28 04:43:52;;;;;;;54.65;25.70;;;;;;;;;;5018936;28;20149;-72
2023/04/28 04:46:18;;;;;;;50.03;24.73;;;;;;;;;;5031683;28;20029;-72
2023/04/28 04:48:44;;;;;;;50.78;23.30;;;;;;;;;;5031029;28;20021;-74
2023/04/28 04:51:10;;;;;;;51.75;24.83;;;;;;;;;;5030121;28;20108;-72
2023/04/28 04:53:37;;;;;;;51.72;24.25;;;;;;;;;;5017834;28;20447;-72
2023/04/28 04:56:03;;;;;;;49.75;23.55;;;;;;;;;;5024740;28;20410;-73
2023/04/28 04:58:29;;;;;;;49.88;24.45;;;;;;;;;;5029539;28;20033;-73
2023/04/28 05:00:55;;;;;;;52.92;25.27;;;;;;;;;;5016263;28;20025;-72
2023/04/28 05:03:21;;;;;;;53.83;25.80;;;;;;;;;;5021749;28;20041;-72
2023/04/28 05:05:47;;;;;;;56.80;25.23;;;;;;;;;;5026199;28;20099;-71
2023/04/28 05:08:13;;;;;;;54.55;24.38;;;;;;;;;;5017190;28;20026;-72
2023/04/28 05:10:40;;;;;;;60.45;26.23;;;;;;;;;;5026910;28;20036;-72
2023/04/28 05:13:06;;;;;;;55.35;24.27;;;;;;;;;;5027825;28;20022;-72
2023/04/28 05:15:32;;;;;;;58.67;25.13;;;;;;;;;;5017277;28;20036;-73
2023/04/28 05:17:58;;;;;;;52.83;25.67;;;;;;;;;;5022294;28;20037;-72
2023/04/28 05:20:24;;;;;;;58.50;25.23;;;;;;;;;;5004843;28;20030;-73
2023/04/28 05:22:50;;;;;;;55.20;24.60;;;;;;;;;;5022670;28;20034;-72
2023/04/28 05:25:16;;;;;;;59.28;25.38;;;;;;;;;;5029911;28;20027;-72
2023/04/28 05:27:43;;;;;;;53.28;24.13;;;;;;;;;;5025734;28;20044;-71
2023/04/28 05:30:09;;;;;;;49.38;25.65;;;;;;;;;;5028060;28;20029;-72
2023/04/28 05:32:36;;;;;;;55.70;25.80;;;;;;;;;;5030084;28;20176;-72
2023/04/28 05:35:02;;;;;;;51.50;24.90;;;;;;;;;;5022391;28;20029;-72
2023/04/28 05:37:28;;;;;;;52.15;24.52;;;;;;;;;;5015213;28;20033;-73
2023/04/28 05:39:55;;;;;;;49.08;23.90;;;;;;;;;;5019215;28;20029;-72
2023/04/28 05:42:21;;;;;;;49.38;25.83;;;;;;;;;;5005079;28;20418;-72
2023/04/28 05:44:47;;;;;;;56.00;24.42;;;;;;;;;;5010848;28;20107;-72
2023/04/28 05:47:13;;;;;;;49.40;24.65;;;;;;;;;;5024515;28;20025;-72
2023/04/28 05:49:39;;;;;;;49.58;23.27;;;;;;;;;;5016959;28;20556;-72
2023/04/28 05:52:06;;;;;;;55.00;24.75;;;;;;;;;;5025953;28;20041;-73
2023/04/28 05:54:33;;;;;;;48.47;24.80;;;;;;;;;;5022814;28;20104;-72
2023/04/28 05:57:00;;;;;;;48.28;23.13;;;;;;;;;;5026494;28;20053;-73
2023/04/28 05:59:27;;;;;;;51.70;23.65;;;;;;;;;;5023329;28;20440;-72
2023/04/28 06:01:53;;;;;;;51.80;24.65;;;;;;;;;;5017487;28;20030;-72
2023/04/28 06:04:19;;;;;;;54.22;23.13;;;;;;;;;;5020425;28;20029;-72
2023/04/28 06:06:46;;;;;;;47.60;23.35;;;;;;;;;;5031709;28;20391;-72
2023/04/28 06:09:12;;;;;;;43.17;22.05;;;;;;;;;;5017311;28;20035;-73
2023/04/28 06:11:38;;;;;;;49.85;24.77;;;;;;;;;;5022519;28;20036;-73
2023/04/28 06:14:04;;;;;;;47.00;23.92;;;;;;;;;;5022967;28;20040;-72
2023/04/28 06:16:30;;;;;;;43.35;22.48;;;;;;;;;;5018920;28;20030;-72
2023/04/28 06:18:57;;;;;;;45.42;23.58;;;;;;;;;;5025213;28;20108;-73
2023/04/28 06:21:23;;;;;;;41.17;21.88;;;;;;;;;;5024943;28;20484;-72
2023/04/28 06:23:50;;;;;;;47.50;25.10;;;;;;;;;;5023983;28;20102;-72
2023/04/28 06:26:16;;;;;;;41.05;23.05;;;;;;;;;;5020794;28;20024;-73
2023/04/28 06:28:42;;;;;;;42.35;21.45;;;;;;;;;;5019459;28;20660;-73
2023/04/28 06:31:08;;;;;;;41.17;22.88;;;;;;;;;;5017289;28;20725;-73
2023/04/28 06:33:35;;;;;;;46.05;22.20;;;;;;;;;;5018438;28;20033;-73
2023/04/28 06:36:01;;;;;;;37.40;21.05;;;;;;;;;;5019536;28;20517;-73
2023/04/28 06:38:27;;;;;;;41.78;20.90;;;;;;;;;;5011248;28;20033;-72
2023/04/28 06:40:53;;;;;;;38.95;21.60;;;;;;;;;;5022706;28;20083;-72
2023/04/28 06:43:19;;;;;;;38.55;20.85;;;;;;;;;;5023940;28;20057;-72
2023/04/28 06:45:45;;;;;;;41.25;21.48;;;;;;;;;;5020464;28;20095;-72
2023/04/28 06:48:11;;;;;;;39.38;19.10;;;;;;;;;;5019504;28;20026;-73
2023/04/28 06:50:38;;;;;;;41.92;21.55;;;;;;;;;;5015893;28;20026;-72
2023/04/28 06:53:04;;;;;;;35.80;19.98;;;;;;;;;;5023107;28;20049;-73
2023/04/28 06:55:30;;;;;;;30.70;17.33;;;;;;;;;;5018845;28;20030;-73
2023/04/28 06:57:56;;;;;;;32.90;18.80;;;;;;;;;;5026522;28;20107;-72
2023/04/28 07:00:22;;;;;;;33.92;18.70;;;;;;;;;;5020221;28;20044;-72
2023/04/28 07:02:49;;;;;;;33.20;18.10;;;;;;;;;;5023322;28;20546;-73
2023/04/28 07:05:15;;;;;;;33.17;19.33;;;;;;;;;;5023826;28;20029;-72
2023/04/28 07:07:41;;;;;;;30.60;17.45;;;;;;;;;;5022319;28;20380;-72
2023/04/28 07:10:08;;;;;;;29.92;16.58;;;;;;;;;;5021957;28;20097;-73
2023/04/28 07:12:34;;;;;;;35.13;16.67;;;;;;;;;;5017586;28;20392;-73
2023/04/28 07:15:00;;;;;;;27.38;16.08;;;;;;;;;;5027064;28;20026;-73
2023/04/28 07:17:26;;;;;;;28.77;16.63;;;;;;;;;;5023546;28;20197;-73
2023/04/28 07:19:52;;;;;;;25.83;15.52;;;;;;;;;;5027080;28;20024;-72
2023/04/28 07:22:18;;;;;;;25.73;14.82;;;;;;;;;;5020798;28;20057;-72
2023/04/28 07:24:44;;;;;;;32.75;15.32;;;;;;;;;;5022489;28;20032;-72
2023/04/28 07:27:10;;;;;;;25.85;14.43;;;;;;;;;;5017631;28;20026;-75
2023/04/28 07:29:36;;;;;;;30.38;15.52;;;;;;;;;;5018991;28;20268;-75
2023/04/28 07:32:07;;;;;;;22.38;13.73;;;;;;;;;;5027168;28;20092;-78
2023/04/28 07:34:34;;;;;;;24.55;12.98;;;;;;;;;;5022899;28;20124;-74
2023/04/28 07:37:01;;;;;;;21.42;13.27;;;;;;;;;;5027967;28;20106;-72
2023/04/28 07:39:27;;;;;;;20.90;12.13;;;;;;;;;;5026963;28;20527;-74
2023/04/28 07:41:56;;;;;;;15.77;10.30;;;;;;;;;;5023480;28;20544;-74
2023/04/28 07:44:22;;;;;;;16.85;10.40;;;;;;;;;;5005540;28;20034;-75
2023/04/28 07:46:49;;;;;;;16.98;11.30;;;;;;;;;;5023844;28;20060;-73
2023/04/28 07:49:15;;;;;;;16.70;10.55;;;;;;;;;;5025126;28;20018;-72
2023/04/28 07:51:42;;;;;;;19.55;11.32;;;;;;;;;;5014310;28;20151;-73
2023/04/28 07:54:08;;;;;;;16.55;10.10;;;;;;;;;;5028628;28;20055;-72
2023/04/28 07:56:34;;;;;;;17.38;10.23;;;;;;;;;;5032015;28;20376;-72
2023/04/28 07:59:00;;;;;;;15.20;10.00;;;;;;;;;;5019889;28;20036;-72
2023/04/28 08:01:26;;;;;;;14.20;9.85;;;;;;;;;;5018640;28;20049;-73
2023/04/28 08:03:52;;;;;;;17.00;9.82;;;;;;;;;;5021082;28;20033;-73
2023/04/28 08:06:19;;;;;;;13.70;8.95;;;;;;;;;;5022624;28;20088;-73
2023/04/28 08:08:46;;;;;;;11.20;7.85;;;;;;;;;;5023561;28;20036;-73
2023/04/28 08:11:12;;;;;;;14.45;8.32;;;;;;;;;;5019817;28;20033;-74
2023/04/28 08:13:38;;;;;;;11.77;7.43;;;;;;;;;;5023483;28;20194;-75
2023/04/28 08:16:04;;;;;;;11.90;7.50;;;;;;;;;;5020436;28;20048;-71
2023/04/28 08:18:30;;;;;;;10.23;7.25;;;;;;;;;;5021033;28;20510;-72
2023/04/28 08:20:56;;;;;;;10.10;7.03;;;;;;;;;;5020075;28;20037;-74
2023/04/28 08:23:26;;;;;;;10.48;6.53;;;;;;;;;;5017563;28;20648;-72
2023/04/28 08:25:53;;;;;;;10.48;7.20;;;;;;;;;;5020333;28;20572;-74
2023/04/28 08:28:19;;;;;;;10.63;6.38;;;;;;;;;;5016593;28;20022;-73
2023/04/28 08:30:45;;;;;;;7.97;5.93;;;;;;;;;;5018009;28;20395;-72
2023/04/28 08:33:11;;;;;;;8.27;5.68;;;;;;;;;;5021612;28;20034;-74
2023/04/28 08:35:38;;;;;;;8.55;5.55;;;;;;;;;;5019158;28;20033;-73
2023/04/28 08:38:04;;;;;;;7.50;5.38;;;;;;;;;;5021994;28;20033;-73
2023/04/28 08:40:30;;;;;;;8.13;5.53;;;;;;;;;;5024230;28;20717;-73
2023/04/28 08:42:57;;;;;;;25.10;6.53;;;;;;;;;;5018126;28;20049;-72
2023/04/28 08:45:24;;;;;;;12.77;5.30;;;;;;;;;;5020361;28;20083;-74
2023/04/28 08:47:51;;;;;;;7.85;5.00;;;;;;;;;;5022767;28;20022;-72
2023/04/28 08:50:21;;;;;;;5.50;4.25;;;;;;;;;;5020618;28;20026;-72
2023/04/28 08:52:47;;;;;;;5.20;4.00;;;;;;;;;;5021193;28;20072;-72
2023/04/28 08:55:14;;;;;;;7.57;4.43;;;;;;;;;;5027298;28;20142;-72
2023/04/28 08:57:44;;;;;;;5.22;4.03;;;;;;;;;;5019467;28;20057;-73
2023/04/28 09:00:11;;;;;;;5.65;4.20;;;;;;;;;;5018484;28;20033;-73
2023/04/28 09:02:40;;;;;;;4.57;3.72;;;;;;;;;;5014052;28;20030;-73
2023/04/28 09:05:07;;;;;;;5.63;4.20;;;;;;;;;;5022117;28;20364;-73
2023/04/28 09:07:33;;;;;;;5.18;3.88;;;;;;;;;;5023785;28;20085;-72
2023/04/28 09:10:18;;;;;;;5.10;4.00;;;;;;;;;;5022987;28;20558;-74
2023/04/28 09:12:45;;;;;;;4.33;3.33;;;;;;;;;;5015188;28;20025;-72
2023/04/28 09:15:24;;;;;;;5.15;3.90;;;;;;;;;;5024738;28;20029;-72
2023/04/28 09:17:51;;;;;;;4.43;3.75;;;;;;;;;;5026704;28;20521;-73
2023/04/28 09:20:25;;;;;;;4.15;3.63;;;;;;;;;;5024544;28;20037;-73
2023/04/28 09:22:56;;;;;;;5.45;3.85;;;;;;;;;;5021792;28;20049;-73
2023/04/28 09:25:23;;;;;;;4.60;3.60;;;;;;;;;;5021882;28;20453;-73
2023/04/28 09:27:49;;;;;;;6.63;3.95;;;;;;;;;;5023726;28;20029;-73
2023/04/28 09:30:16;;;;;;;5.15;3.65;;;;;;;;;;5017198;28;20430;-74
2023/04/28 09:32:42;;;;;;;4.05;3.47;;;;;;;;;;5022470;28;20515;-72
2023/04/28 09:35:08;;;;;;;5.10;3.80;;;;;;;;;;5017190;28;20030;-75
2023/04/28 09:37:36;;;;;;;5.15;4.18;;;;;;;;;;5025236;28;20025;-75
2023/04/28 09:40:07;;;;;;;5.18;3.38;;;;;;;;;;5020783;28;20069;-75
2023/04/28 09:42:33;;;;;;;4.97;3.90;;;;;;;;;;5021823;28;20021;-75
2023/04/28 09:45:01;;;;;;;6.45;4.38;;;;;;;;;;5019317;28;20034;-75
2023/04/28 09:47:27;;;;;;;5.00;4.35;;;;;;;;;;5021043;28;20496;-73
2023/04/28 09:49:58;;;;;;;5.88;4.25;;;;;;;;;;5021457;28;20555;-74
2023/04/28 09:52:25;;;;;;;4.47;3.78;;;;;;;;;;5014712;28;20018;-74
2023/04/28 09:54:52;;;;;;;4.78;4.18;;;;;;;;;;5014306;28;20034;-73
2023/04/28 09:57:18;;;;;;;3.75;3.28;;;;;;;;;;5016539;28;20439;-73
2023/04/28 09:59:48;;;;;;;4.00;3.25;;;;;;;;;;5010483;28;20018;-73
2023/04/28 10:02:19;;;;;;;3.17;2.75;;;;;;;;;;5023203;28;20030;-74
2023/04/28 10:04:46;;;;;;;3.05;2.17;;;;;;;;;;5022036;28;20030;-75
2023/04/28 10:07:16;;;;;;;2.63;2.05;;;;;;;;;;5021803;28;20483;-74
2023/04/28 10:09:46;;;;;;;2.50;2.20;;;;;;;;;;5022413;28;20137;-74
2023/04/28 10:12:12;;;;;;;4.07;1.92;;;;;;;;;;5021199;28;20463;-74
2023/04/28 10:14:39;;;;;;;2.20;2.00;;;;;;;;;;5026724;28;20048;-74
2023/04/28 10:17:05;;;;;;;2.38;2.17;;;;;;;;;;5022053;28;20392;-75
2023/04/28 10:19:32;;;;;;;2.00;1.80;;;;;;;;;;5022139;28;20029;-73
2023/04/28 10:22:06;;;;;;;2.65;2.00;;;;;;;;;;5012953;28;20037;-74
2023/04/28 10:24:32;;;;;;;3.28;2.28;;;;;;;;;;5025152;28;20060;-73
2023/04/28 10:27:03;;;;;;;2.53;2.33;;;;;;;;;;5020728;28;20036;-74
2023/04/28 10:29:30;;;;;;;2.50;2.30;;;;;;;;;;5021141;28;20034;-74
2023/04/28 10:32:19;;;;;;;2.20;2.00;;;;;;;;;;5017777;28;20362;-73
2023/04/28 10:34:46;;;;;;;2.30;2.10;;;;;;;;;;5023883;28;20028;-74
2023/04/28 10:37:13;;;;;;;2.50;2.20;;;;;;;;;;5016492;28;20116;-75
2023/04/28 10:39:40;;;;;;;2.35;2.15;;;;;;;;;;5024703;28;20018;-74
2023/04/28 10:42:26;;;;;;;2.60;2.30;;;;;;;;;;5017594;28;20111;-73
2023/04/28 10:44:52;;;;;;;2.40;2.20;;;;;;;;;;5022849;28;20159;-75
2023/04/28 10:47:18;;;;;;;2.53;2.30;;;;;;;;;;5021459;28;20021;-74
2023/04/28 10:49:56;;;;;;;1.90;1.80;;;;;;;;;;5017815;28;20025;-74
2023/04/28 10:52:43;;;;;;;3.17;2.17;;;;;;;;;;5016774;28;20495;-74
2023/04/28 10:55:31;;;;;;;2.17;1.98;;;;;;;;;;5008936;28;20395;-73
2023/04/28 10:58:26;;;;;;;2.80;2.20;;;;;;;;;;5020825;28;20042;-73
2023/04/28 11:00:52;;;;;;;3.05;2.60;;;;;;;;;;5015729;28;20057;-75
2023/04/28 11:03:37;;;;;;;6.78;3.53;;;;;;;;;;5020394;28;20586;-74
2023/04/28 11:06:27;;;;;;;2.10;1.90;;;;;;;;;;5018126;28;20104;-73
2023/04/28 11:08:55;;;;;;;2.65;1.92;;;;;;;;;;5021206;28;20028;-73
2023/04/28 11:11:39;;;;;;;1.88;1.70;;;;;;;;;;5016464;28;20030;-72
2023/04/28 11:14:17;;;;;;;1.75;1.65;;;;;;;;;;5023641;28;20040;-73
2023/04/28 11:16:54;;;;;;;1.60;1.50;;;;;;;;;;5018471;28;20037;-73
2023/04/28 11:19:21;;;;;;;1.80;1.70;;;;;;;;;;5018742;28;20506;-74
2023/04/28 11:21:47;;;;;;;2.17;1.60;;;;;;;;;;5029882;28;20048;-73
2023/04/28 11:24:13;;;;;;;2.00;1.80;;;;;;;;;;5010826;28;20507;-73
2023/04/28 11:26:40;;;;;;;1.75;1.63;;;;;;;;;;5024998;28;20040;-74
2023/04/28 11:29:06;;;;;;;2.88;1.77;;;;;;;;;;5009476;28;20044;-74
2023/04/28 11:31:33;;;;;;;2.40;2.20;;;;;;;;;;5000411;28;20025;-73
2023/04/28 11:34:15;;;;;;;2.25;2.05;;;;;;;;;;5017396;28;20416;-73
2023/04/28 11:36:41;;;;;;;2.10;1.90;;;;;;;;;;5019655;28;20100;-73
2023/04/28 11:39:08;;;;;;;2.10;1.85;;;;;;;;;;5016572;28;20177;-71
2023/04/28 11:41:36;;;;;;;1.65;1.55;;;;;;;;;;5015749;28;20564;-73
2023/04/28 11:44:21;;;;;;;1.73;1.63;;;;;;;;;;5020880;28;20037;-75
2023/04/28 11:46:55;;;;;;;1.80;1.70;;;;;;;;;;5018045;28;20249;-72
2023/04/28 11:49:23;;;;;;;1.73;1.63;;;;;;;;;;5015829;28;20033;-74
2023/04/28 11:51:50;;;;;;;1.73;1.60;;;;;;;;;;5016523;28;20025;-73
2023/04/28 11:54:26;;;;;;;1.90;1.42;;;;;;;;;;5014017;28;20057;-72
2023/04/28 11:56:53;;;;;;;2.20;2.00;;;;;;;;;;5022120;28;20046;-74
2023/04/28 11:59:24;;;;;;;2.72;2.00;;;;;;;;;;5022370;28;20026;-74
2023/04/28 12:01:51;;;;;;;2.10;1.90;;;;;;;;;;5019014;28;20033;-73
2023/04/28 12:04:39;;;;;;;4.13;2.10;;;;;;;;;;5031550;28;20067;-73
2023/04/28 12:07:12;;;;;;;1.70;1.60;;;;;;;;;;5014057;28;20021;-72
2023/04/28 12:09:39;;;;;;;2.10;1.90;;;;;;;;;;5022705;28;20042;-72
2023/04/28 12:12:19;;;;;;;1.90;1.80;;;;;;;;;;5030361;28;20385;-79
2023/04/28 12:15:00;;;;;;;1.85;1.75;;;;;;;;;;5047926;28;20033;-80
2023/04/28 12:17:42;;;;;;;2.28;1.40;;;;;;;;;;5039480;28;20052;-78
2023/04/28 12:20:18;;;;;;;1.92;1.60;;;;;;;;;;5033896;28;20479;-80
2023/04/28 12:22:50;;;;;;;1.63;1.52;;;;;;;;;;5032778;28;21969;-76
2023/04/28 12:25:21;;;;;;;2.30;2.10;;;;;;;;;;5033833;28;20029;-81
2023/04/28 12:28:07;;;;;;;2.30;2.08;;;;;;;;;;5002055;28;20057;-76
2023/04/28 12:30:33;;;;;;;;;;;;;;;;;;5035416;28;20068;-74
2023/04/28 12:32:59;;;;;;;2.08;1.85;;;;;;;;;;5016103;28;19916;-77
2023/04/28 12:35:26;;;;;;;1.85;1.70;;;;;;;;;;5030243;28;20021;-75
2023/04/28 12:37:54;;;;;;;1.95;1.80;;;;;;;;;;5025970;28;20554;-75
2023/04/28 12:40:20;;;;;;;2.13;1.92;;;;;;;;;;5028467;28;20035;-76
2023/04/28 12:42:46;;;;;;;3.80;1.90;;;;;;;;;;5020156;28;20040;-77
2023/04/28 12:45:13;;;;;;;1.77;1.67;;;;;;;;;;5029846;28;20018;-76
2023/04/28 12:47:39;;;;;;;1.60;1.50;;;;;;;;;;5032268;28;20129;-76
2023/04/28 12:50:06;;;;;;;1.75;1.65;;;;;;;;;;5025790;28;20033;-76
2023/04/28 12:52:33;;;;;;;2.30;2.10;;;;;;;;;;5032117;28;20021;-78
2023/04/28 12:54:59;;;;;;;2.00;1.80;;;;;;;;;;5023072;28;20026;-78
2023/04/28 12:57:25;;;;;;;2.63;2.13;;;;;;;;;;5034841;28;20069;-76
2023/04/28 12:59:52;;;;;;;3.13;2.03;;;;;;;;;;5034721;28;20120;-77
2023/04/28 13:02:18;;;;;;;2.88;2.10;;;;;;;;;;5017355;28;20089;-77
2023/04/28 13:04:45;;;;;;;2.13;1.92;;;;;;;;;;5033072;28;20026;-77
2023/04/28 13:07:14;;;;;;;2.90;2.60;;;;;;;;;;5038869;28;20037;-76
2023/04/28 13:09:41;;;;;;;2.40;2.20;;;;;;;;;;5030439;28;20075;-78
2023/04/28 13:12:07;;;;;;;2.30;1.88;;;;;;;;;;5029061;28;20030;-78
2023/04/28 13:14:34;;;;;;;2.25;1.80;;;;;;;;;;5023069;28;20081;-76
2023/04/28 13:17:02;;;;;;;2.10;1.90;;;;;;;;;;5026733;28;20037;-76
2023/04/28 13:19:29;;;;;;;2.15;1.90;;;;;;;;;;5029563;28;20030;-77
2023/04/28 13:21:55;;;;;;;1.80;1.70;;;;;;;;;;5032412;28;20471;-77
2023/04/28 13:24:21;;;;;;;1.85;1.75;;;;;;;;;;5021813;28;20096;-77
2023/04/28 13:26:47;;;;;;;1.80;1.70;;;;;;;;;;5025598;28;20053;-77
2023/04/28 13:29:14;;;;;;;1.73;1.63;;;;;;;;;;5017161;28;20088;-78
2023/04/28 13:31:40;;;;;;;1.67;1.58;;;;;;;;;;5029361;28;20029;-76
2023/04/28 13:34:43;;;;;;;1.80;1.70;;;;;;;;;;5030019;28;20075;-77
2023/04/28 13:37:10;;;;;;;1.77;1.67;;;;;;;;;;5021547;28;20025;-75
2023/04/28 13:39:36;;;;;;;2.28;1.80;;;;;;;;;;5035079;28;20095;-76
2023/04/28 13:42:02;;;;;;;1.60;1.50;;;;;;;;;;5027957;28;20061;-77
2023/04/28 13:44:28;;;;;;;1.70;1.60;;;;;;;;;;5025535;28;20025;-77
2023/04/28 13:46:55;;;;;;;2.05;1.60;;;;;;;;;;5022331;28;20053;-77
2023/04/28 13:49:22;;;;;;;1.60;1.50;;;;;;;;;;5023162;28;20025;-77
2023/04/28 13:51:48;;;;;;;1.50;1.40;;;;;;;;;;5019142;28;20053;-77
2023/04/28 13:54:14;;;;;;;1.45;1.35;;;;;;;;;;5004227;28;20026;-76
2023/04/28 13:56:40;;;;;;;2.78;1.50;;;;;;;;;;5019925;28;20056;-77
2023/04/28 13:59:07;;;;;;;1.60;1.50;;;;;;;;;;5019799;28;20037;-75
2023/04/28 14:01:33;;;;;;;3.65;1.60;;;;;;;;;;5022302;28;20483;-76
2023/04/28 14:03:59;;;;;;;1.50;1.40;;;;;;;;;;5026165;28;20025;-77
2023/04/28 14:06:26;;;;;;;1.40;1.30;;;;;;;;;;5007002;28;20030;-77
2023/04/28 14:08:52;;;;;;;1.40;1.30;;;;;;;;;;5020570;28;20036;-77
2023/04/28 14:11:18;;;;;;;1.50;1.40;;;;;;;;;;5031955;28;20028;-75
2023/04/28 14:13:45;;;;;;;1.60;1.50;;;;;;;;;;5030269;28;20033;-76
2023/04/28 14:16:11;;;;;;;1.50;1.40;;;;;;;;;;5024993;28;20040;-77
2023/04/28 14:18:37;;;;;;;1.50;1.40;;;;;;;;;;5028880;28;20061;-75
2023/04/28 14:21:06;;;;;;;1.90;1.70;;;;;;;;;;5030433;28;20026;-76
2023/04/28 14:23:34;;;;;;;1.60;1.50;;;;;;;;;;5032434;28;20542;-75
2023/04/28 14:26:00;;;;;;;1.65;1.55;;;;;;;;;;5028862;28;20022;-78
2023/04/28 14:28:26;;;;;;;1.70;1.60;;;;;;;;;;5028408;28;20024;-77
2023/04/28 14:30:55;;;;;;;2.33;1.70;;;;;;;;;;5039239;22;20140;-80